Time;durP1;ratioP1;P1;durP2;ratioP2;P2;SDS_P1;SDS_P2;PMS_P1;PMS_P2;Temp;Humidity;BMP_temperature;BMP_pressure;BME280_temperature;BME280_humidity;BME280_pressure;Samples;Min_cycle;Max_cycle;Signal;HPM_P1;HPM_P2
2021/04/06 00:03:28;;;;;;;1.20;0.60;;;19.10;48.40;;;;;;10417256;28;20592;-66
2021/04/06 00:08:52;;;;;;;0.83;0.43;;;19.10;48.40;;;;;;10416260;28;20197;-69
2021/04/06 00:14:16;;;;;;;2.17;0.67;;;19.10;48.30;;;;;;10416345;28;20588;-68
2021/04/06 00:19:40;;;;;;;0.80;0.67;;;19.10;48.20;;;;;;10414192;28;20689;-67
2021/04/06 00:25:06;;;;;;;1.37;0.67;;;19.10;48.30;;;;;;10415356;28;20218;-72
2021/04/06 00:30:30;;;;;;;1.13;0.60;;;19.00;48.30;;;;;;10415558;28;20194;-69
2021/04/06 00:35:54;;;;;;;1.20;0.57;;;19.00;48.40;;;;;;10414942;28;20237;-69
2021/04/06 00:41:16;;;;;;;1.73;0.73;;;19.00;48.30;;;;;;10419241;28;20195;-67
2021/04/06 00:46:41;;;;;;;1.23;0.57;;;19.10;48.30;;;;;;10455650;28;20217;-69
2021/04/06 00:52:05;;;;;;;0.87;0.70;;;19.10;48.30;;;;;;10432037;28;20233;-68
2021/04/06 00:57:29;;;;;;;0.97;0.50;;;19.10;48.30;;;;;;10414069;28;20190;-68
2021/04/06 01:02:58;;;;;;;0.60;0.50;;;19.00;48.40;;;;;;10413886;28;20217;-69
2021/04/06 01:08:25;;;;;;;2.00;0.70;;;19.10;48.40;;;;;;10414237;28;20250;-68
2021/04/06 01:13:48;;;;;;;0.93;0.67;;;19.00;48.30;;;;;;10413665;28;20213;-70
2021/04/06 01:19:11;;;;;;;1.30;0.50;;;19.00;48.30;;;;;;10413052;28;20197;-69
2021/04/06 01:24:34;;;;;;;0.80;0.50;;;19.00;48.40;;;;;;10413534;28;20213;-70
2021/04/06 01:29:57;;;;;;;1.10;0.60;;;19.00;48.40;;;;;;10412939;28;20228;-68
2021/04/06 01:35:19;;;;;;;2.13;0.40;;;19.00;48.40;;;;;;10413216;28;20217;-69
2021/04/06 01:40:43;;;;;;;0.73;0.40;;;19.00;48.40;;;;;;10415483;28;20248;-69
2021/04/06 01:46:14;;;;;;;1.07;0.50;;;19.00;48.30;;;;;;10411517;28;20229;-67
2021/04/06 01:51:37;;;;;;;0.60;0.40;;;19.00;48.30;;;;;;10413254;28;20233;-70
2021/04/06 01:57:07;;;;;;;0.67;0.60;;;19.00;48.30;;;;;;10411760;28;20265;-69
2021/04/06 02:02:29;;;;;;;1.87;0.50;;;19.00;48.40;;;;;;10412032;28;20217;-69
2021/04/06 02:07:53;;;;;;;0.77;0.50;;;19.00;48.40;;;;;;10414781;28;20330;-69
2021/04/06 02:13:16;;;;;;;1.47;0.47;;;19.00;48.40;;;;;;10411549;28;20224;-69
2021/04/06 02:18:38;;;;;;;0.90;0.50;;;19.00;48.30;;;;;;10411551;28;20669;-69
2021/04/06 02:24:00;;;;;;;0.93;0.43;;;19.00;48.30;;;;;;10411248;28;20240;-69
2021/04/06 02:29:22;;;;;;;1.07;0.50;;;19.00;48.30;;;;;;10411041;28;20204;-68
2021/04/06 02:34:46;;;;;;;0.80;0.40;;;19.00;48.40;;;;;;10411097;28;20225;-69
2021/04/06 02:40:09;;;;;;;0.53;0.40;;;19.00;48.40;;;;;;10412056;28;20673;-68
2021/04/06 02:45:32;;;;;;;1.40;0.73;;;19.00;48.40;;;;;;10459028;28;20310;-68
2021/04/06 02:50:54;;;;;;;0.97;0.50;;;19.00;48.30;;;;;;10459099;28;20196;-70
2021/04/06 02:56:31;;;;;;;1.20;0.30;;;19.00;48.20;;;;;;10459776;28;20271;-69
2021/04/06 03:01:59;;;;;;;0.87;0.50;;;19.00;48.20;;;;;;10459426;28;20292;-70
2021/04/06 03:07:23;;;;;;;0.70;0.40;;;19.00;48.30;;;;;;10459264;28;20235;-65
2021/04/06 03:12:46;;;;;;;2.23;0.50;;;19.00;48.30;;;;;;10459026;28;20225;-69
2021/04/06 03:18:10;;;;;;;1.03;0.60;;;19.00;48.20;;;;;;10458048;28;20315;-69
2021/04/06 03:23:33;;;;;;;0.63;0.50;;;19.00;48.20;;;;;;10458648;28;20213;-69
2021/04/06 03:28:58;;;;;;;0.60;0.50;;;18.90;48.30;;;;;;10458233;28;20568;-70
2021/04/06 03:34:21;;;;;;;0.83;0.40;;;19.00;48.40;;;;;;10456610;28;20217;-65
2021/04/06 03:39:43;;;;;;;0.70;0.40;;;18.90;48.30;;;;;;10457947;28;20549;-69
2021/04/06 03:45:05;;;;;;;0.60;0.40;;;19.00;48.20;;;;;;10457254;28;20213;-71
2021/04/06 03:50:39;;;;;;;1.37;0.67;;;19.10;48.10;;;;;;10458099;28;20193;-72
2021/04/06 03:56:04;;;;;;;0.90;0.50;;;19.10;48.00;;;;;;10456691;28;20318;-69
2021/04/06 04:01:26;;;;;;;1.10;0.60;;;19.10;48.00;;;;;;10457255;28;20296;-69
2021/04/06 04:06:48;;;;;;;0.57;0.30;;;19.10;47.90;;;;;;10425968;28;20363;-67
2021/04/06 04:12:10;;;;;;;1.00;0.50;;;19.10;48.00;;;;;;10415634;28;20221;-67
2021/04/06 04:17:32;;;;;;;1.13;0.57;;;19.10;48.00;;;;;;10415629;28;20201;-69
2021/04/06 04:22:55;;;;;;;0.80;0.50;;;19.10;48.10;;;;;;10415411;28;20229;-69
2021/04/06 04:28:16;;;;;;;1.20;0.50;;;19.10;48.10;;;;;;10415529;28;20217;-69
2021/04/06 04:33:38;;;;;;;0.47;0.33;;;19.10;48.00;;;;;;10412865;28;20336;-67
2021/04/06 04:39:01;;;;;;;0.40;0.40;;;19.20;48.00;;;;;;10415610;28;20197;-68
2021/04/06 04:44:22;;;;;;;1.33;0.60;;;19.10;47.90;;;;;;10417529;28;20229;-69
2021/04/06 04:49:44;;;;;;;1.07;0.47;;;19.20;47.90;;;;;;10414379;28;20202;-69
2021/04/06 04:55:08;;;;;;;0.40;0.30;;;19.20;47.90;;;;;;10455712;22;20303;-56
2021/04/06 05:00:29;;;;;;;1.03;0.43;;;19.20;47.90;;;;;;10402700;28;21410;-58
2021/04/06 05:05:51;;;;;;;1.20;0.50;;;19.20;47.90;;;;;;10412023;28;20217;-58
2021/04/06 05:11:13;;;;;;;0.97;0.47;;;19.20;48.00;;;;;;10412133;28;20347;-58
2021/04/06 05:16:35;;;;;;;0.90;0.50;;;19.20;48.00;;;;;;10412424;28;20194;-58
2021/04/06 05:21:57;;;;;;;0.73;0.33;;;19.20;48.10;;;;;;10411765;28;20217;-59
2021/04/06 05:27:19;;;;;;;0.50;0.40;;;19.20;48.00;;;;;;10409356;28;20225;-59
2021/04/06 05:32:41;;;;;;;0.40;0.40;;;19.20;48.00;;;;;;10371541;28;20541;-57
2021/04/06 05:38:03;;;;;;;1.00;0.50;;;19.20;48.00;;;;;;10388378;28;20190;-56
2021/04/06 05:43:26;;;;;;;1.13;0.60;;;19.20;48.00;;;;;;10409336;28;20583;-56
2021/04/06 05:48:49;;;;;;;0.87;0.60;;;19.20;48.00;;;;;;10410125;28;20667;-55
2021/04/06 05:54:12;;;;;;;0.80;0.60;;;19.20;48.10;;;;;;10410680;28;20229;-56
2021/04/06 05:59:35;;;;;;;0.87;0.60;;;19.20;48.10;;;;;;10409460;28;20251;-57
2021/04/06 06:04:57;;;;;;;1.00;0.63;;;19.20;48.10;;;;;;10410410;28;20210;-54
2021/04/06 06:10:29;;;;;;;0.70;0.50;;;19.20;48.10;;;;;;10409675;28;20218;-58
2021/04/06 06:16:17;;;;;;;1.30;0.80;;;19.20;48.10;;;;;;10409560;28;20197;-56
2021/04/06 06:21:42;;;;;;;1.27;0.70;;;19.20;48.10;;;;;;10402002;28;20221;-57
2021/04/06 06:27:22;;;;;;;0.80;0.70;;;19.20;48.20;;;;;;10410236;28;20214;-59
2021/04/06 06:32:45;;;;;;;1.63;0.80;;;19.20;48.20;;;;;;10409124;28;20224;-60
2021/04/06 06:38:18;;;;;;;1.13;0.63;;;19.20;48.20;;;;;;10410159;28;20206;-57
2021/04/06 06:43:41;;;;;;;1.53;0.90;;;19.20;48.20;;;;;;10406897;28;20222;-59
2021/04/06 06:49:06;;;;;;;2.20;0.83;;;19.20;48.20;;;;;;10408636;28;20224;-58
2021/04/06 06:54:36;;;;;;;1.67;0.87;;;19.20;48.20;;;;;;10409967;28;20756;-58
2021/04/06 07:00:13;;;;;;;0.93;0.53;;;19.20;48.10;;;;;;10408917;28;20216;-60
2021/04/06 07:05:36;;;;;;;2.07;0.60;;;19.20;48.00;;;;;;10409160;28;20213;-55
2021/04/06 07:11:00;;;;;;;1.00;0.70;;;19.20;48.00;;;;;;10408947;28;20222;-57
2021/04/06 07:16:22;;;;;;;2.20;0.60;;;19.30;48.10;;;;;;10408154;28;20271;-58
2021/04/06 07:21:45;;;;;;;1.40;0.73;;;19.30;48.10;;;;;;10409639;28;20209;-59
2021/04/06 07:27:09;;;;;;;1.10;0.60;;;19.20;48.20;;;;;;10411960;28;20218;-59
2021/04/06 07:32:32;;;;;;;1.53;0.77;;;19.20;48.20;;;;;;10416534;28;20686;-55
2021/04/06 07:37:54;;;;;;;3.13;0.77;;;19.20;48.10;;;;;;10415559;28;20575;-55
2021/04/06 07:43:17;;;;;;;1.43;0.50;;;19.20;48.10;;;;;;10415148;28;20217;-58
2021/04/06 07:48:44;;;;;;;1.10;0.70;;;19.20;48.20;;;;;;10414618;28;20702;-55
2021/04/06 07:54:08;;;;;;;0.70;0.50;;;19.20;48.20;;;;;;10415807;28;20694;-57
2021/04/06 07:59:49;;;;;;;1.13;0.80;;;19.30;48.20;;;;;;10415721;28;20190;-55
2021/04/06 08:05:18;;;;;;;1.23;0.70;;;19.30;48.10;;;;;;10412633;28;20734;-55
2021/04/06 08:10:48;;;;;;;1.17;0.83;;;19.30;48.20;;;;;;10413712;28;20594;-55
2021/04/06 08:16:13;;;;;;;1.03;0.67;;;19.20;48.00;;;;;;10413980;28;20194;-56
2021/04/06 08:21:35;;;;;;;1.57;0.77;;;19.20;47.90;;;;;;10412914;28;20706;-54
2021/04/06 08:27:32;;;;;;;1.93;1.17;;;19.20;47.80;;;;;;10413486;28;20682;-57
2021/04/06 08:33:27;;;;;;;1.67;0.93;;;19.30;47.80;;;;;;10413286;28;20218;-55
2021/04/06 08:38:48;;;;;;;2.03;0.90;;;19.30;47.70;;;;;;10412222;28;20221;-59
2021/04/06 08:44:12;;;;;;;1.90;0.83;;;19.30;47.80;;;;;;10411637;28;20217;-56
2021/04/06 08:49:41;;;;;;;1.00;0.70;;;19.30;47.80;;;;;;10411929;28;20202;-59
2021/04/06 08:55:12;;;;;;;1.03;0.63;;;19.20;47.80;;;;;;10408468;28;20194;-58
2021/04/06 09:00:35;;;;;;;2.00;0.90;;;19.30;47.90;;;;;;10405495;28;20691;-56
2021/04/06 09:06:04;;;;;;;1.53;0.90;;;19.20;47.90;;;;;;10406656;28;20371;-59
2021/04/06 09:11:25;;;;;;;0.83;0.60;;;19.30;48.00;;;;;;10410344;28;20272;-57
2021/04/06 09:16:51;;;;;;;1.47;0.70;;;19.30;48.00;;;;;;10412159;28;20201;-58
2021/04/06 09:22:15;;;;;;;0.93;0.67;;;19.30;48.00;;;;;;10411647;28;20240;-59
2021/04/06 09:27:50;;;;;;;1.57;0.80;;;19.30;47.90;;;;;;10410765;28;20225;-57
2021/04/06 09:33:15;;;;;;;2.40;0.90;;;19.30;47.90;;;;;;10409057;28;20218;-59
2021/04/06 09:38:38;;;;;;;2.40;0.90;;;19.30;48.00;;;;;;10408505;28;20202;-59
2021/04/06 09:43:59;;;;;;;1.83;0.83;;;19.30;48.00;;;;;;10404685;28;20587;-57
2021/04/06 09:49:23;;;;;;;1.03;0.60;;;19.30;48.10;;;;;;10402204;28;20225;-56
2021/04/06 09:54:48;;;;;;;1.17;0.60;;;19.30;48.10;;;;;;10399695;28;20202;-54
2021/04/06 10:00:12;;;;;;;2.13;0.83;;;19.30;48.10;;;;;;10402561;28;20220;-56
2021/04/06 10:05:36;;;;;;;2.03;0.80;;;19.30;48.10;;;;;;10400172;28;20225;-55
2021/04/06 10:10:58;;;;;;;1.73;1.03;;;19.30;48.10;;;;;;10404342;28;20220;-58
2021/04/06 10:16:20;;;;;;;2.73;1.00;;;19.30;48.10;;;;;;10403403;28;20193;-57
2021/04/06 10:21:43;;;;;;;1.87;0.83;;;19.30;48.00;;;;;;10401973;28;20252;-58
2021/04/06 10:27:19;;;;;;;1.97;1.10;;;19.30;48.10;;;;;;10404097;28;20238;-57
2021/04/06 10:32:43;;;;;;;1.63;0.80;;;19.30;48.10;;;;;;10403951;28;20310;-56
2021/04/06 10:38:07;;;;;;;1.33;0.70;;;19.30;48.10;;;;;;10403361;28;20193;-57
2021/04/06 10:43:30;;;;;;;1.67;0.90;;;19.30;48.20;;;;;;10403418;28;20248;-54
2021/04/06 10:49:00;;;;;;;1.33;0.80;;;19.30;48.10;;;;;;10400141;28;20272;-54
2021/04/06 10:54:23;;;;;;;1.83;0.70;;;19.30;48.10;;;;;;10401331;28;20336;-58
2021/04/06 10:59:45;;;;;;;1.43;0.70;;;19.30;48.00;;;;;;10399236;28;20204;-58
2021/04/06 11:05:07;;;;;;;2.83;0.70;;;19.30;48.00;;;;;;10471811;22;20282;-68
2021/04/06 11:10:30;;;;;;;1.27;0.60;;;19.30;48.10;;;;;;10456729;28;20201;-68
2021/04/06 11:15:51;;;;;;;1.33;0.77;;;19.30;48.20;;;;;;10416322;28;20248;-67
2021/04/06 11:21:13;;;;;;;1.70;0.73;;;19.30;48.20;;;;;;10414242;28;20221;-68
2021/04/06 11:26:35;;;;;;;1.07;0.63;;;19.30;48.20;;;;;;10416116;28;20228;-66
2021/04/06 11:31:59;;;;;;;1.20;0.80;;;19.30;48.10;;;;;;10415524;28;20221;-71
2021/04/06 11:37:21;;;;;;;6.87;1.23;;;19.30;48.10;;;;;;10416098;28;20542;-67
2021/04/06 11:42:43;;;;;;;19.05;1.95;;;19.30;47.80;;;;;;10410804;28;20431;-69
2021/04/06 11:48:06;;;;;;;10.83;1.53;;;20.20;45.80;;;;;;10415083;28;20693;-64
2021/04/06 11:53:27;;;;;;;5.87;1.20;;;19.70;47.00;;;;;;10376264;28;20210;-66
2021/04/06 11:58:50;;;;;;;12.67;1.20;;;19.40;47.70;;;;;;10389364;28;20224;-66
2021/04/06 12:04:12;;;;;;;11.00;1.50;;;19.40;47.20;;;;;;10413504;28;20241;-66
2021/04/06 12:09:34;;;;;;;13.97;2.30;;;19.40;48.10;;;;;;10411480;28;20225;-65
2021/04/06 12:14:56;;;;;;;11.00;1.53;;;19.40;47.20;;;;;;10408646;28;20217;-66
2021/04/06 12:20:19;;;;;;;7.47;1.50;;;19.30;47.50;;;;;;10411727;28;20214;-68
2021/04/06 12:25:40;;;;;;;40.30;4.30;;;19.20;46.60;;;;;;10406071;28;20218;-66
2021/04/06 12:31:04;;;;;;;34.27;7.13;;;19.20;46.30;;;;;;10410297;28;20204;-66
2021/04/06 12:36:27;;;;;;;23.17;4.77;;;19.10;46.00;;;;;;10408118;28;20240;-68
2021/04/06 12:41:49;;;;;;;25.50;4.83;;;19.10;46.00;;;;;;10408960;28;20309;-64
2021/04/06 12:47:11;;;;;;;22.93;4.23;;;19.00;45.50;;;;;;10408444;28;20221;-67
2021/04/06 12:52:33;;;;;;;17.67;3.23;;;19.00;45.30;;;;;;10408753;28;20271;-62
2021/04/06 12:57:56;;;;;;;17.00;3.40;;;19.20;45.80;;;;;;10406542;28;20194;-67
2021/04/06 13:03:18;;;;;;;14.50;4.10;;;19.30;45.90;;;;;;10406792;28;20593;-66
2021/04/06 13:08:40;;;;;;;27.03;12.67;;;19.40;46.30;;;;;;10405357;28;20216;-63
2021/04/06 13:14:02;;;;;;;30.50;11.97;;;19.20;46.20;;;;;;10392568;28;20932;-68
2021/04/06 13:19:26;;;;;;;20.80;8.80;;;20.00;45.20;;;;;;10394541;28;20221;-68
2021/04/06 13:24:47;;;;;;;47.87;9.87;;;19.60;45.90;;;;;;10408790;28;20597;-62
2021/04/06 13:30:11;;;;;;;19.20;7.27;;;19.50;46.60;;;;;;10411863;28;20198;-66
2021/04/06 13:35:36;;;;;;;22.10;7.40;;;19.40;46.90;;;;;;10409888;28;20225;-66
2021/04/06 13:40:58;;;;;;;21.40;7.00;;;19.30;46.80;;;;;;10410984;28;20626;-66
2021/04/06 13:46:20;;;;;;;20.20;5.90;;;19.30;46.60;;;;;;10411113;28;20229;-66
2021/04/06 13:51:42;;;;;;;23.00;5.80;;;19.40;47.00;;;;;;10406783;28;20407;-66
2021/04/06 13:57:05;;;;;;;18.13;4.67;;;19.40;47.00;;;;;;10399305;28;20194;-65
2021/04/06 14:02:26;;;;;;;14.10;4.60;;;19.40;47.20;;;;;;10395353;28;20233;-68
2021/04/06 14:07:49;;;;;;;14.67;4.20;;;19.30;47.30;;;;;;10393453;28;20248;-67
2021/04/06 14:13:11;;;;;;;9.17;4.67;;;19.40;47.60;;;;;;10398881;28;20692;-67
2021/04/06 14:18:33;;;;;;;9.60;4.37;;;19.40;47.60;;;;;;10410924;28;20193;-66
2021/04/06 14:23:55;;;;;;;12.93;4.50;;;19.40;47.70;;;;;;10408546;28;20251;-65
2021/04/06 14:29:17;;;;;;;8.63;4.13;;;19.40;47.80;;;;;;10408860;28;20218;-66
2021/04/06 14:34:39;;;;;;;7.47;3.63;;;19.40;47.80;;;;;;10408629;28;20217;-66
2021/04/06 14:40:01;;;;;;;6.83;3.30;;;19.40;47.90;;;;;;10409209;28;20205;-66
2021/04/06 14:45:23;;;;;;;5.87;2.93;;;19.40;48.00;;;;;;10406445;28;20275;-66
2021/04/06 14:50:45;;;;;;;7.67;3.03;;;19.40;48.00;;;;;;10404991;28;20194;-66
2021/04/06 14:56:08;;;;;;;4.73;2.20;;;19.40;48.10;;;;;;10407379;28;20540;-65
2021/04/06 15:01:30;;;;;;;5.17;2.60;;;19.30;48.20;;;;;;10406734;28;20226;-63
2021/04/06 15:06:52;;;;;;;6.77;2.53;;;19.30;48.20;;;;;;10409246;28;20220;-65
2021/04/06 15:12:14;;;;;;;5.27;2.73;;;19.30;48.40;;;;;;10408032;28;20574;-65
2021/04/06 15:17:36;;;;;;;5.40;2.40;;;19.40;48.30;;;;;;10409491;28;20205;-63
2021/04/06 15:22:59;;;;;;;4.40;2.63;;;19.40;48.30;;;;;;10410182;28;20226;-65
2021/04/06 15:28:23;;;;;;;4.73;2.23;;;19.40;48.30;;;;;;10408713;28;20252;-66
2021/04/06 15:33:44;;;;;;;3.60;1.83;;;19.40;48.20;;;;;;10408102;28;20217;-62
2021/04/06 15:39:06;;;;;;;5.10;1.83;;;19.50;48.20;;;;;;10409225;28;20186;-65
2021/04/06 15:44:29;;;;;;;2.53;1.70;;;19.60;48.20;;;;;;10408049;28;20217;-65
2021/04/06 15:49:51;;;;;;;4.90;1.97;;;19.60;48.20;;;;;;10412914;28;20217;-64
2021/04/06 15:55:15;;;;;;;3.00;1.80;;;19.60;48.20;;;;;;10406465;28;20604;-66
2021/04/06 16:00:39;;;;;;;5.27;1.57;;;19.70;48.50;;;;;;10405521;28;20735;-66
2021/04/06 16:06:02;;;;;;;4.07;1.77;;;19.60;48.40;;;;;;10414771;28;20268;-65
2021/04/06 16:11:24;;;;;;;5.40;1.73;;;19.60;48.50;;;;;;10411586;28;20218;-66
2021/04/06 16:16:46;;;;;;;2.83;1.53;;;19.60;48.50;;;;;;10414349;28;20209;-66
2021/04/06 16:22:08;;;;;;;3.80;1.60;;;19.50;48.50;;;;;;10410662;28;20222;-65
2021/04/06 16:27:30;;;;;;;4.83;1.70;;;19.60;48.50;;;;;;10408906;28;20225;-66
2021/04/06 16:32:52;;;;;;;3.73;1.67;;;19.50;48.50;;;;;;10408919;28;20221;-67
2021/04/06 16:38:15;;;;;;;3.03;1.57;;;19.50;48.60;;;;;;10413994;28;20196;-67
2021/04/06 16:43:37;;;;;;;4.00;1.43;;;19.60;48.60;;;;;;10413075;28;20217;-69
2021/04/06 16:49:00;;;;;;;6.00;2.00;;;19.60;48.50;;;;;;10411297;28;20275;-67
2021/04/06 16:54:22;;;;;;;4.47;2.00;;;19.70;48.50;;;;;;10407686;28;20272;-67
2021/04/06 16:59:43;;;;;;;3.97;1.77;;;19.70;48.40;;;;;;10412678;28;20568;-67
2021/04/06 17:05:07;;;;;;;4.67;2.03;;;19.70;48.40;;;;;;10435945;22;20586;-71
2021/04/06 17:10:29;;;;;;;3.87;1.60;;;19.70;48.40;;;;;;10436396;28;20203;-72
2021/04/06 17:15:51;;;;;;;3.80;2.20;;;19.70;48.50;;;;;;10409592;28;20639;-73
2021/04/06 17:21:13;;;;;;;4.50;2.50;;;19.70;48.60;;;;;;10415569;28;20581;-71
2021/04/06 17:26:35;;;;;;;4.87;1.97;;;19.60;48.40;;;;;;10404162;28;20245;-71
2021/04/06 17:31:57;;;;;;;5.23;1.90;;;19.70;48.80;;;;;;10378096;28;20198;-73
2021/04/06 17:37:19;;;;;;;5.83;2.30;;;19.70;48.70;;;;;;10335549;28;20195;-73
2021/04/06 17:42:41;;;;;;;3.27;1.80;;;19.60;48.70;;;;;;10368647;28;20221;-71
2021/04/06 17:48:04;;;;;;;3.07;1.70;;;19.60;48.60;;;;;;10379688;28;20229;-71
2021/04/06 17:53:28;;;;;;;4.17;1.53;;;19.60;48.70;;;;;;10401565;28;20213;-71
2021/04/06 17:58:50;;;;;;;3.00;1.80;;;19.60;48.80;;;;;;10381952;28;20202;-71
2021/04/06 18:04:12;;;;;;;5.07;1.70;;;19.60;48.80;;;;;;10373784;28;20230;-71
2021/04/06 18:09:34;;;;;;;4.10;1.47;;;19.60;48.80;;;;;;10347489;28;20853;-72
2021/04/06 18:14:56;;;;;;;4.27;1.77;;;19.60;48.80;;;;;;10331603;28;20269;-71
2021/04/06 18:20:19;;;;;;;2.83;1.53;;;19.50;48.90;;;;;;10329296;28;20191;-71
2021/04/06 18:25:42;;;;;;;2.90;1.60;;;19.50;48.50;;;;;;10348998;28;20222;-70
2021/04/06 18:31:03;;;;;;;4.00;1.50;;;19.50;48.70;;;;;;10411112;28;20201;-72
2021/04/06 18:36:25;;;;;;;3.50;1.60;;;19.50;48.70;;;;;;10403070;28;20207;-72
2021/04/06 18:41:49;;;;;;;3.87;1.63;;;19.50;48.70;;;;;;10377861;28;20194;-71
2021/04/06 18:47:10;;;;;;;4.27;1.90;;;19.50;48.60;;;;;;10410319;28;20605;-72
2021/04/06 18:52:32;;;;;;;2.10;1.27;;;19.60;48.70;;;;;;10410308;28;20781;-71
2021/04/06 18:57:55;;;;;;;4.10;1.60;;;19.60;48.70;;;;;;10367373;28;20429;-70
2021/04/06 19:03:18;;;;;;;2.50;1.27;;;20.60;46.20;;;;;;10336058;28;20779;-70
2021/04/06 19:08:39;;;;;;;3.17;1.47;;;19.80;48.00;;;;;;10393566;28;20225;-70
2021/04/06 19:14:02;;;;;;;3.33;1.57;;;19.60;48.60;;;;;;10410447;28;20288;-71
2021/04/06 19:19:24;;;;;;;4.03;1.60;;;19.50;48.90;;;;;;10378659;28;20198;-71
2021/04/06 19:24:46;;;;;;;2.73;1.43;;;19.40;49.00;;;;;;10416378;28;20225;-71
2021/04/06 19:30:12;;;;;;;3.63;1.50;;;19.40;49.10;;;;;;10417390;28;20213;-71
2021/04/06 19:35:35;;;;;;;2.63;1.30;;;19.40;49.20;;;;;;10416879;28;20214;-72
2021/04/06 19:40:57;;;;;;;3.87;1.53;;;19.30;49.20;;;;;;10415873;28;20198;-71
2021/04/06 19:46:19;;;;;;;4.33;1.20;;;19.30;49.30;;;;;;10385316;28;20222;-71
2021/04/06 19:51:41;;;;;;;2.87;1.60;;;19.30;49.40;;;;;;10386517;28;20206;-69
2021/04/06 19:57:04;;;;;;;3.07;1.40;;;19.30;49.40;;;;;;10335940;28;20196;-70
2021/04/06 20:02:26;;;;;;;2.67;1.47;;;19.30;49.40;;;;;;10334784;28;20265;-70
2021/04/06 20:07:48;;;;;;;2.50;1.20;;;19.30;49.40;;;;;;10335619;28;20227;-71
2021/04/06 20:13:13;;;;;;;1.30;0.80;;;19.30;49.40;;;;;;10335229;28;20227;-71
2021/04/06 20:18:36;;;;;;;2.40;1.20;;;19.40;49.30;;;;;;10363919;28;20689;-71
2021/04/06 20:23:58;;;;;;;3.13;1.10;;;19.40;49.40;;;;;;10413252;28;20210;-70
2021/04/06 20:29:21;;;;;;;3.10;1.20;;;19.40;49.40;;;;;;10384515;28;20232;-70
2021/04/06 20:34:44;;;;;;;2.70;0.97;;;19.40;49.50;;;;;;10372942;28;20237;-72
2021/04/06 20:40:09;;;;;;;2.33;1.20;;;19.40;49.50;;;;;;10373901;28;20198;-70
2021/04/06 20:45:30;;;;;;;1.40;0.90;;;19.30;49.60;;;;;;10412506;28;20221;-70
2021/04/06 20:50:54;;;;;;;2.30;1.30;;;19.30;49.70;;;;;;10391534;28;20191;-71
2021/04/06 20:56:15;;;;;;;2.30;1.20;;;19.30;49.80;;;;;;10354476;28;20218;-71
2021/04/06 21:01:38;;;;;;;1.73;0.80;;;19.30;49.90;;;;;;10336626;28;20194;-70
2021/04/06 21:07:00;;;;;;;1.20;1.00;;;19.20;49.90;;;;;;10365698;28;20222;-70
2021/04/06 21:12:22;;;;;;;2.47;1.07;;;19.20;49.90;;;;;;10333880;28;20215;-70
2021/04/06 21:17:43;;;;;;;1.63;1.23;;;19.20;49.90;;;;;;10368341;28;20195;-70
2021/04/06 21:23:06;;;;;;;1.63;0.90;;;19.30;49.90;;;;;;10396472;28;20222;-71
2021/04/06 21:28:27;;;;;;;1.77;0.97;;;19.40;49.70;;;;;;10346046;28;20215;-70
2021/04/06 21:33:49;;;;;;;1.10;0.83;;;19.40;49.70;;;;;;10333302;28;20319;-70
2021/04/06 21:39:11;;;;;;;1.97;0.90;;;19.30;49.70;;;;;;10371911;28;20217;-70
2021/04/06 21:44:33;;;;;;;1.47;0.80;;;19.30;49.70;;;;;;10402997;28;20655;-70
2021/04/06 21:49:56;;;;;;;1.10;0.80;;;19.30;49.70;;;;;;10403592;28;20264;-70
2021/04/06 21:55:19;;;;;;;1.23;0.93;;;19.30;49.60;;;;;;10400265;28;20635;-70
2021/04/06 22:00:41;;;;;;;1.63;0.80;;;19.30;49.70;;;;;;10379276;28;20190;-70
2021/04/06 22:06:03;;;;;;;1.20;0.70;;;19.30;49.70;;;;;;10403575;28;20704;-70
2021/04/06 22:11:26;;;;;;;1.53;0.87;;;19.30;49.70;;;;;;10410890;28;20202;-71
2021/04/06 22:16:48;;;;;;;2.30;0.80;;;19.30;49.60;;;;;;10406519;28;20195;-70
2021/04/06 22:22:10;;;;;;;1.43;0.80;;;19.30;49.60;;;;;;10370526;28;20744;-71
2021/04/06 22:27:32;;;;;;;1.70;1.03;;;19.30;49.70;;;;;;10370657;28;20214;-71
2021/04/06 22:32:54;;;;;;;1.23;0.97;;;19.30;49.70;;;;;;10376181;28;20213;-70
2021/04/06 22:38:16;;;;;;;1.97;0.80;;;19.30;49.70;;;;;;10398366;28;20193;-70
2021/04/06 22:43:40;;;;;;;1.23;0.80;;;19.30;49.70;;;;;;10387336;28;20226;-70
2021/04/06 22:49:02;;;;;;;1.17;0.83;;;19.30;49.60;;;;;;10369891;28;20214;-70
2021/04/06 22:54:24;;;;;;;1.17;0.80;;;19.30;49.60;;;;;;10369848;28;20210;-71
2021/04/06 22:59:48;;;;;;;0.77;0.77;;;19.30;49.70;;;;;;10396671;28;20247;-71
2021/04/06 23:05:11;;;;;;;1.33;0.73;;;19.20;49.60;;;;;;10435932;22;20236;-66
2021/04/06 23:10:33;;;;;;;1.20;0.67;;;19.30;49.60;;;;;;10442174;28;20688;-67
2021/04/06 23:15:55;;;;;;;1.67;0.60;;;19.30;49.60;;;;;;10431068;28;20218;-67
2021/04/06 23:21:17;;;;;;;1.33;0.93;;;19.30;49.60;;;;;;10417184;28;20200;-67
2021/04/06 23:26:39;;;;;;;1.50;0.80;;;19.30;49.70;;;;;;10417696;28;20218;-67
2021/04/06 23:32:02;;;;;;;1.30;0.90;;;19.20;49.60;;;;;;10417158;28;20201;-67
2021/04/06 23:37:23;;;;;;;1.53;0.80;;;19.20;50.20;;;;;;10416818;28;20213;-67
2021/04/06 23:42:45;;;;;;;0.77;0.60;;;19.30;49.60;;;;;;10400621;28;20248;-67
2021/04/06 23:48:08;;;;;;;1.20;0.70;;;19.20;49.60;;;;;;10376098;28;20214;-67
2021/04/06 23:53:30;;;;;;;2.03;0.80;;;19.20;49.60;;;;;;10384809;28;20229;-68
2021/04/06 23:58:51;;;;;;;0.90;0.63;;;19.20;49.60;;;;;;10354929;28;20624;-66
